Wind From: 11-12-2017 12:03 Until: 12-12-2017 06:00 warning for: Wind Level: Orange info button

Power and phone distribution networks may be disrupted for relatively long periods., Roofs and chimneys can be damaged. , Tree branches may break. , Vehicles can be deported. , Traffic may be disrupted, particularly on secondary roads in forest areas. Limit your trips. , Limit your speed in highway driving, especially if you drive a vehicle or hitch sensitive to wind. , Do not go for walks in forests or along the coast., In town, be vigilant against possible falling objects., Do not work on roofs and do not touch any electrical line fallen on the ground., Store or secure sensitive objects to wind or likely to be damaged., Always install power generators outside buildings. 


Meteo18 Weather Cam more information Meteo18 Weather Cam


Thunder radar more information blitzortung!


Rain radar more information rain snow radar


Visit our other weather sites:

Template documentation
and downloads

And another site



Weather Underground History page Text

Daily Summary for October 20, 2017 Units:  English    Metric   Both
« Previous Day
Next Day »
Daily Weekly Monthly Yearly Custom
  High: Low: Average:
Temperature: 62.2 °F 52.3 °F 57.2 °F
Dew Point: 55.6 °F 49.3 °F 52.3 °F
Humidity: 95 % 67 % 84 %
Wind Speed: 18 mph 0 mph 4.7 mph
Wind Gust: 26 mph - -
Wind:- - SW
Pressure: 30.1 in 29.9 in -
Precipitation: 0.01 in    
Historical Graphs
 
 
Tabular Data for October 20, 2017
Time Temperature Dew Point Pressure Wind Wind Speed Wind Gust Humidity Rainfall Rate (Hourly)
00:02 61.3 °F 55.4 °F 29.9 in SSW 8 mph 13 mph 81 % 0 in
00:07 61.5 °F 55.6 °F 29.9 in SSW 12 mph 13 mph 81 % 0 in
00:12 61.9 °F 55.6 °F 29.9 in SSW 8 mph 15 mph 80 % 0 in
00:17 62.2 °F 55.6 °F 29.9 in SSW 8 mph 15 mph 79 % 0 in
00:22 62.2 °F 55.6 °F 29.9 in SSW 8 mph 19 mph 79 % 0 in
00:32 62.2 °F 55.6 °F 29.9 in SSW 7 mph 19 mph 79 % 0 in
00:42 62.2 °F 55.2 °F 29.9 in SW 17 mph 20 mph 78 % 0 in
00:47 62.2 °F 55.6 °F 29.9 in SSW 12 mph 20 mph 79 % 0 in
00:52 62.1 °F 55.4 °F 29.9 in SW 16 mph 19 mph 79 % 0 in
00:57 62.1 °F 55.4 °F 29.9 in SSW 11 mph 19 mph 79 % 0 in
01:02 61.9 °F 55.2 °F 29.9 in SSW 8 mph 19 mph 79 % 0 in
01:07 61.5 °F 54.9 °F 29.9 in SSW 7 mph 19 mph 79 % 0 in
01:12 61.3 °F 55 °F 29.9 in SSW 8 mph 16 mph 80 % 0 in
01:17 61.3 °F 55 °F 29.9 in SSW 6 mph 16 mph 80 % 0 in
01:22 61.3 °F 54.9 °F 29.9 in SW 9 mph 16 mph 79 % 0 in
01:27 61.2 °F 54.7 °F 29.9 in SSW 11 mph 15 mph 79 % 0 in
01:32 61 °F 54.5 °F 29.9 in SW 7 mph 14 mph 79 % 0 in
01:37 60.8 °F 54.7 °F 29.9 in SW 10 mph 13 mph 80 % 0 in
01:47 61 °F 54.5 °F 29.9 in South 11 mph 15 mph 79 % 0 in
01:52 61 °F 54.5 °F 29.9 in SSE 9 mph 15 mph 79 % 0 in
02:02 61 °F 54.5 °F 29.9 in SW 8 mph 14 mph 79 % 0 in
02:07 60.6 °F 54.5 °F 29.9 in SW 5 mph 14 mph 80 % 0 in
02:12 60.3 °F 54.3 °F 29.9 in WSW 7 mph 14 mph 81 % 0 in
02:17 60.3 °F 54.3 °F 29.9 in SW 7 mph 13 mph 81 % 0 in
02:22 59.9 °F 54.1 °F 29.9 in SW 9 mph 13 mph 81 % 0 in
02:32 59.5 °F 54 °F 29.9 in SW 6 mph 14 mph 82 % 0 in
02:37 59.4 °F 54.1 °F 29.9 in SW 7 mph 14 mph 83 % 0 in
02:42 58.8 °F 54 °F 29.9 in SW 9 mph 13 mph 84 % 0 in
02:52 58.3 °F 53.8 °F 29.9 in SSW 5 mph 13 mph 85 % 0 in
02:57 57.9 °F 53.4 °F 29.9 in SSW 7 mph 13 mph 85 % 0 in
03:02 57.7 °F 53.2 °F 29.9 in SW 5 mph 12 mph 85 % 0 in
03:07 57.4 °F 53.2 °F 29.9 in SW 3 mph 10 mph 86 % 0 in
03:12 57.4 °F 53.6 °F 29.9 in SW 5 mph 9 mph 87 % 0 in
03:17 57.2 °F 53.4 °F 29.9 in SW 6 mph 9 mph 87 % 0 in
03:22 56.8 °F 53.1 °F 29.9 in SSW 4 mph 8 mph 87 % 0 in
03:32 56.1 °F 52.7 °F 29.9 in SW 3 mph 8 mph 88 % 0 in
03:37 56.1 °F 52.7 °F 29.9 in SSW 4 mph 6 mph 88 % 0 in
03:42 55.9 °F 52.7 °F 29.9 in SW 4 mph 8 mph 89 % 0 in
03:47 55.8 °F 52.5 °F 29.9 in SW 3 mph 8 mph 89 % 0 in
03:52 55.4 °F 52.2 °F 29.9 in SW 4 mph 8 mph 89 % 0 in
03:57 55.4 °F 52.5 °F 29.9 in SW 4 mph 6 mph 90 % 0 in
04:02 55.4 °F 52.5 °F 29.9 in SW 3 mph 6 mph 90 % 0 in
04:07 55.4 °F 52.5 °F 29.9 in SW 6 mph 6 mph 90 % 0 in
04:12 55.4 °F 52.2 °F 29.9 in SSW 3 mph 7 mph 89 % 0 in
04:17 55.4 °F 52.5 °F 29.9 in SW 3 mph 7 mph 90 % 0 in
04:22 55.6 °F 52.7 °F 29.9 in SSW 3 mph 7 mph 90 % 0 in
04:27 55.2 °F 52.3 °F 29.9 in SW 3 mph 6 mph 90 % 0 in
04:32 54.9 °F 52 °F 29.9 in SW 3 mph 5 mph 90 % 0 in
04:42 55 °F 52.5 °F 29.9 in SW 4 mph 6 mph 91 % 0 in
04:47 55.2 °F 52.3 °F 29.9 in SSW 4 mph 9 mph 90 % 0 in
04:52 55.8 °F 52.5 °F 29.9 in SW 7 mph 9 mph 89 % 0 in
04:57 56.7 °F 53.1 °F 29.9 in SSW 7 mph 9 mph 88 % 0 in
05:02 58.6 °F 53.4 °F 29.9 in SW 12 mph 12 mph 83 % 0 in
05:07 59.9 °F 54.1 °F 29.9 in WSW 18 mph 25 mph 81 % 0 in
05:17 59.4 °F 54.1 °F 29.9 in SW 17 mph 26 mph 83 % 0 in
05:22 59.2 °F 54.3 °F 29.9 in SW 8 mph 26 mph 84 % 0 in
05:27 59.2 °F 54.3 °F 29.9 in SW 9 mph 21 mph 84 % 0 in
05:32 59 °F 54.1 °F 29.9 in SW 6 mph 21 mph 84 % 0 in
05:37 58.8 °F 54 °F 29.9 in SW 10 mph 21 mph 84 % 0 in
05:47 59 °F 54.1 °F 29.9 in SW 7 mph 13 mph 84 % 0 in
05:52 59.2 °F 54 °F 29.9 in SW 11 mph 13 mph 83 % 0 in
06:02 59.2 °F 54.3 °F 29.9 in SW 10 mph 18 mph 84 % 0 in
06:12 59 °F 54.5 °F 29.9 in West 12 mph 18 mph 85 % 0 in
06:17 58.6 °F 54.9 °F 29.9 in SW 3 mph 22 mph 87 % 0 in
06:22 58.3 °F 54.5 °F 29.9 in WSW 9 mph 22 mph 87 % 0 in
06:32 57.7 °F 54.5 °F 29.9 in WSW 13 mph 16 mph 89 % 0 in
06:42 57.4 °F 54.9 °F 29.9 in SSW 4 mph 15 mph 91 % 0 in
06:52 57 °F 54.7 °F 29.9 in SW 3 mph 15 mph 92 % 0 in
06:57 56.7 °F 54.7 °F 29.9 in West 6 mph 16 mph 93 % 0 in
07:02 55.9 °F 53.4 °F 29.9 in West 12 mph 16 mph 91 % 0 in
07:07 55 °F 52.5 °F 29.9 in NW 4 mph 14 mph 91 % 0 in
07:12 54.5 °F 52 °F 29.9 in West 8 mph 14 mph 91 % 0 in
07:17 54.1 °F 51.8 °F 29.9 in West 7 mph 16 mph 92 % 0.01 in
07:22 54 °F 51.6 °F 30 in West 5 mph 16 mph 92 % 0.01 in
07:32 53.6 °F 51.6 °F 30 in WNW 2 mph 14 mph 93 % 0.01 in
07:42 53.2 °F 51.3 °F 30 in WSW 4 mph 10 mph 93 % 0.01 in
07:52 53.1 °F 50.7 °F 30 in SW 4 mph 10 mph 92 % 0.01 in
08:02 52.9 °F 50.5 °F 30 in SW 2 mph 10 mph 92 % 0.01 in
08:12 52.9 °F 50.5 °F 30 in SW 4 mph 9 mph 92 % 0.01 in
08:17 52.9 °F 50.9 °F 30 in West 7 mph 11 mph 93 % 0 in
08:22 52.9 °F 50.9 °F 30 in WSW 3 mph 11 mph 93 % 0 in
08:32 52.9 °F 50.9 °F 30 in SSW 5 mph 10 mph 93 % 0 in
08:42 52.9 °F 50.9 °F 30 in SW 2 mph 10 mph 93 % 0 in
08:47 52.9 °F 50.9 °F 30 in SW 1 mph 7 mph 93 % 0 in
08:52 53.1 °F 51.1 °F 30 in West 1 mph 7 mph 93 % 0 in
09:02 53.1 °F 51.1 °F 30 in WSW 4 mph 7 mph 93 % 0 in
09:12 53.2 °F 51.3 °F 30 in WSW 2 mph 6 mph 93 % 0 in
09:17 53.2 °F 51.3 °F 30 in SW 3 mph 6 mph 93 % 0 in
09:22 53.4 °F 51.8 °F 30 in WSW 1 mph 6 mph 94 % 0 in
09:32 53.6 °F 52 °F 30 in SW 3 mph 7 mph 94 % 0 in
09:42 53.8 °F 52.2 °F 30 in WSW 2 mph 5 mph 94 % 0 in
09:52 54 °F 52 °F 30 in WSW 2 mph 6 mph 93 % 0 in
10:02 54.3 °F 52.3 °F 30 in WSW 2 mph 6 mph 93 % 0 in
10:12 54.5 °F 52.5 °F 30 in SW 3 mph 6 mph 93 % 0 in
10:17 54.7 °F 52.3 °F 30 in WSW 4 mph 9 mph 92 % 0 in
10:22 54.9 °F 52.5 °F 30 in WSW 3 mph 9 mph 92 % 0 in
10:32 55.4 °F 52.9 °F 30 in WSW 5 mph 9 mph 91 % 0 in
10:37 55.4 °F 52.5 °F 30 in WSW 5 mph 6 mph 90 % 0 in
10:42 55.6 °F 52.7 °F 30 in WSW 4 mph 6 mph 90 % 0 in
10:47 55.8 °F 52.9 °F 30.1 in WSW 3 mph 7 mph 90 % 0 in
10:52 55.8 °F 52.5 °F 30.1 in SSW 6 mph 7 mph 89 % 0 in
11:02 55.9 °F 52.7 °F 30.1 in WSW 3 mph 8 mph 89 % 0 in
11:12 56.1 °F 52.7 °F 30.1 in SW 2 mph 8 mph 88 % 0 in
11:17 56.7 °F 53.1 °F 30.1 in SSW 3 mph 7 mph 88 % 0 in
11:22 56.7 °F 51.8 °F 30.1 in WSW 5 mph 7 mph 84 % 0 in
11:32 56.7 °F 52.5 °F 30.1 in West 1 mph 8 mph 86 % 0 in
11:37 56.7 °F 51.8 °F 30.1 in WSW 7 mph 10 mph 84 % 0 in
11:42 56.7 °F 52.5 °F 30.1 in West 1 mph 10 mph 86 % 0 in
11:52 56.7 °F 51.6 °F 30.1 in West 3 mph 10 mph 83 % 0 in
12:02 56.7 °F 50.5 °F 30.1 in West 8 mph 10 mph 80 % 0 in
12:12 57 °F 51.6 °F 30.1 in West 3 mph 12 mph 82 % 0 in
12:17 57 °F 51.3 °F 30.1 in West 5 mph 12 mph 81 % 0 in
12:22 57 °F 51.3 °F 30.1 in West 3 mph 12 mph 81 % 0 in
12:32 57.6 °F 51.1 °F 30.1 in West 4 mph 9 mph 79 % 0 in
12:42 57.6 °F 51.1 °F 30.1 in SW 6 mph 12 mph 79 % 0 in
12:47 57.7 °F 51.3 °F 30.1 in SSW 6 mph 12 mph 79 % 0 in
12:52 57.7 °F 52 °F 30.1 in SW 8 mph 12 mph 81 % 0 in
13:02 57.9 °F 51.8 °F 30.1 in SSW 5 mph 10 mph 80 % 0 in
13:12 58.6 °F 52.2 °F 30.1 in WSW 5 mph 11 mph 79 % 0 in
13:22 58.6 °F 50.7 °F 30.1 in SW 6 mph 11 mph 75 % 0 in
13:32 58.8 °F 49.5 °F 30.1 in SW 7 mph 12 mph 71 % 0 in
13:42 59.5 °F 50.2 °F 30.1 in SW 6 mph 14 mph 71 % 0 in
13:52 59.5 °F 49.8 °F 30.1 in West 7 mph 12 mph 70 % 0 in
13:57 59.5 °F 49.3 °F 30.1 in SW 4 mph 13 mph 69 % 0 in
14:02 59.5 °F 50.2 °F 30.1 in SSW 4 mph 13 mph 71 % 0 in
14:12 60.3 °F 50.4 °F 30.1 in WSW 8 mph 13 mph 70 % 0 in
14:17 60.1 °F 49.5 °F 30.1 in WSW 7 mph 13 mph 68 % 0 in
14:22 60.1 °F 49.8 °F 30.1 in SW 6 mph 17 mph 69 % 0 in
14:32 60.4 °F 49.5 °F 30.1 in SW 10 mph 17 mph 67 % 0 in
14:37 60.6 °F 50 °F 30.1 in West 8 mph 12 mph 68 % 0 in
14:47 60.6 °F 50.4 °F 30.1 in SW 6 mph 15 mph 69 % 0 in
14:52 60.8 °F 49.8 °F 30.1 in SW 7 mph 15 mph 67 % 0 in
14:57 60.6 °F 50 °F 30 in WSW 7 mph 14 mph 68 % 0 in
15:02 60.6 °F 50 °F 30 in West 3 mph 14 mph 68 % 0 in
15:07 61 °F 50.4 °F 30 in WSW 5 mph 14 mph 68 % 0 in
15:17 61.3 °F 50.7 °F 30 in SW 7 mph 12 mph 68 % 0 in
15:22 61.3 °F 50.4 °F 30 in SW 6 mph 17 mph 67 % 0 in
15:27 61.3 °F 50.7 °F 30 in WSW 7 mph 17 mph 68 % 0 in
15:32 61.2 °F 50.5 °F 30 in SW 6 mph 17 mph 68 % 0 in
15:37 61.2 °F 50.9 °F 30 in SSW 5 mph 15 mph 69 % 0 in
15:42 61 °F 51.1 °F 30 in WSW 4 mph 13 mph 70 % 0 in
15:47 60.8 °F 51.3 °F 30 in SW 6 mph 13 mph 71 % 0 in
15:52 60.8 °F 51.8 °F 30 in SSW 8 mph 12 mph 72 % 0 in
15:57 60.8 °F 51.8 °F 30 in SSW 6 mph 11 mph 72 % 0 in
16:02 60.8 °F 52.2 °F 30 in SW 6 mph 11 mph 73 % 0 in
16:12 60.8 °F 52.2 °F 30 in SSW 7 mph 12 mph 73 % 0 in
16:17 60.8 °F 52.5 °F 30 in SSW 3 mph 12 mph 74 % 0 in
16:22 61 °F 52.7 °F 30 in SSW 4 mph 12 mph 74 % 0 in
16:32 60.6 °F 52.7 °F 30 in SSW 6 mph 13 mph 75 % 0 in
16:37 61 °F 53.4 °F 30 in SSW 5 mph 13 mph 76 % 0 in
16:42 61 °F 53.1 °F 30 in SW 5 mph 10 mph 75 % 0 in
16:47 60.4 °F 52.9 °F 30 in South 5 mph 11 mph 76 % 0 in
16:57 60.3 °F 53.1 °F 30.1 in SW 9 mph 11 mph 77 % 0 in
17:02 60.3 °F 53.1 °F 30.1 in SSW 2 mph 11 mph 77 % 0 in
17:12 61.2 °F 54 °F 30 in South 9 mph 11 mph 77 % 0 in
17:17 61 °F 53.1 °F 30 in SSW 10 mph 11 mph 75 % 0 in
17:22 60.8 °F 53.6 °F 30 in SW 5 mph 11 mph 77 % 0 in
17:27 61 °F 53.4 °F 30 in SW 4 mph 11 mph 76 % 0 in
17:32 61.2 °F 53.2 °F 30 in SSW 5 mph 11 mph 75 % 0 in
17:42 61.2 °F 53.6 °F 30 in SSW 4 mph 11 mph 76 % 0 in
17:52 61.3 °F 53.8 °F 30 in Calm   9 mph 76 % 0 in
17:57 61.3 °F 53.8 °F 30 in SW 7 mph 9 mph 76 % 0 in
18:02 61.2 °F 53.6 °F 30 in SW 4 mph 9 mph 76 % 0 in
18:07 61 °F 53.4 °F 30 in SW 5 mph 10 mph 76 % 0 in
18:12 60.8 °F 53.2 °F 30 in SW 4 mph 10 mph 76 % 0 in
18:17 60.6 °F 53.1 °F 30 in SSW 5 mph 10 mph 76 % 0 in
18:22 60.4 °F 53.2 °F 30 in SW 4 mph 9 mph 77 % 0 in
18:27 60.3 °F 53.1 °F 30 in SSW 2 mph 9 mph 77 % 0 in
18:32 59.9 °F 53.1 °F 30 in SSW 2 mph 8 mph 78 % 0 in
18:42 59.2 °F 52.7 °F 30.1 in SSW 2 mph 7 mph 79 % 0 in
18:47 58.6 °F 52.5 °F 30.1 in SW 1 mph 7 mph 80 % 0 in
18:52 58.1 °F 52.3 °F 30.1 in SSW 2 mph 7 mph 81 % 0 in
18:57 57.7 °F 52.3 °F 30.1 in South 2 mph 5 mph 82 % 0 in
19:02 57.4 °F 52.3 °F 30.1 in SSW 2 mph 5 mph 83 % 0 in
19:07 57 °F 52 °F 30.1 in SSW 2 mph 5 mph 83 % 0 in
19:12 56.7 °F 51.8 °F 30.1 in SSW 2 mph 4 mph 84 % 0 in
19:17 56.1 °F 51.6 °F 30.1 in South 1 mph 4 mph 85 % 0 in
19:22 55.9 °F 51.4 °F 30.1 in SSW 1 mph 3 mph 85 % 0 in
19:32 55.6 °F 51.4 °F 30.1 in SW 1 mph 3 mph 86 % 0 in
19:42 55.2 °F 51.4 °F 30.1 in Calm   2 mph 87 % 0 in
19:52 54.9 °F 51.1 °F 30.1 in Calm   1 mph 87 % 0 in
20:02 54.3 °F 50.9 °F 30.1 in Calm   1 mph 88 % 0 in
20:12 54.1 °F 50.9 °F 30.1 in SSW 2 mph 2 mph 89 % 0 in
20:22 54.1 °F 51.3 °F 30.1 in South 1 mph 2 mph 90 % 0 in
20:32 53.8 °F 50.9 °F 30.1 in SW 2 mph 2 mph 90 % 0 in
20:37 53.8 °F 51.3 °F 30.1 in SSW 1 mph 2 mph 91 % 0 in
20:47 53.6 °F 51.1 °F 30.1 in SSW 1 mph 2 mph 91 % 0 in
20:57 53.4 °F 50.9 °F 30.1 in Calm   2 mph 91 % 0 in
21:02 53.4 °F 51.1 °F 30.1 in Calm   2 mph 92 % 0 in
21:07 53.2 °F 50.9 °F 30.1 in Calm   1 mph 92 % 0 in
21:12 53.2 °F 50.9 °F 30.1 in Calm   1 mph 92 % 0 in
21:17 53.2 °F 50.9 °F 30.1 in Calm   1 mph 92 % 0 in
21:22 53.2 °F 50.9 °F 30.1 in SW 1 mph 1 mph 92 % 0 in
21:27 53.1 °F 50.7 °F 30.1 in WSW 1 mph 1 mph 92 % 0 in
21:32 52.9 °F 50.9 °F 30.1 in Calm   1 mph 93 % 0 in
21:37 52.9 °F 50.9 °F 30.1 in SW 1 mph 2 mph 93 % 0 in
21:42 53.1 °F 51.1 °F 30.1 in South 1 mph 4 mph 93 % 0 in
21:47 53.1 °F 51.1 °F 30.1 in SW 4 mph 4 mph 93 % 0 in
21:52 52.9 °F 50.9 °F 30.1 in Calm   4 mph 93 % 0 in
21:57 52.9 °F 50.9 °F 30.1 in SW 1 mph 4 mph 93 % 0 in
22:02 52.9 °F 50.9 °F 30.1 in Calm   4 mph 93 % 0 in
22:12 52.9 °F 50.9 °F 30.1 in Calm   2 mph 93 % 0 in
22:22 52.9 °F 50.9 °F 30.1 in Calm   2 mph 93 % 0 in
22:32 53.1 °F 51.4 °F 30.1 in South 2 mph 2 mph 94 % 0 in
22:42 53.1 °F 51.1 °F 30.1 in SSW 1 mph 2 mph 93 % 0 in
22:47 53.1 °F 51.4 °F 30.1 in Calm   2 mph 94 % 0 in
22:52 53.1 °F 51.4 °F 30.1 in Calm   2 mph 94 % 0 in
23:02 53.1 °F 51.4 °F 30.1 in Calm   2 mph 94 % 0 in
23:07 52.9 °F 50.9 °F 30.1 in Calm   1 mph 93 % 0 in
23:12 52.7 °F 51.1 °F 30.1 in Calm   1 mph 94 % 0 in
23:17 52.5 °F 50.5 °F 30.1 in Calm     93 % 0 in
23:22 52.3 °F 50.7 °F 30.1 in Calm     94 % 0 in
23:32 52.5 °F 50.9 °F 30.1 in Calm     94 % 0 in
23:37 52.7 °F 51.1 °F 30.1 in Calm     94 % 0 in
23:42 52.9 °F 51.4 °F 30.1 in Calm     95 % 0 in
23:47 52.9 °F 51.4 °F 30.1 in Calm     95 % 0 in
23:52 53.1 °F 51.6 °F 30.1 in Calm   1 mph 95 % 0 in
23:57 53.4 °F 52 °F 30.1 in SW 1 mph 1 mph 95 % 0 in
Meteo18
Compliments of Weather Underground - 4 mb

Script developed by  Jim McMurry - jmcmurry@mwt.net Adapted for the template by  Wim van der Kuil - Leuven-Template.eu

You find our weather info also at:

European Weather Network

Weather Underground

Equipment we use:

Weather-station
Davis Vue

Weather-program
Meteohub

Weather-server
Raspberry PI 2 B+

Provider
1 and 1

Davis Vue

Meteohub

Raspberry PI 2 B+

1 and 1